sensor_id;sensor_type;location;lat;lon;timestamp;pressure;altitude;pressure_sealevel;temperature;humidity
5595;BME280;1003;48.002;7.788;2023-06-26T00:01:39;98939.44;;;20.72;100.00
5595;BME280;1003;48.002;7.788;2023-06-26T00:04:06;98936.78;;;20.74;100.00
5595;BME280;1003;48.002;7.788;2023-06-26T00:06:33;98936.94;;;20.70;100.00
5595;BME280;1003;48.002;7.788;2023-06-26T00:09:03;98939.84;;;20.64;100.00
5595;BME280;1003;48.002;7.788;2023-06-26T00:11:30;98949.66;;;20.56;100.00
5595;BME280;1003;48.002;7.788;2023-06-26T00:13:59;98944.13;;;20.48;100.00
5595;BME280;1003;48.002;7.788;2023-06-26T00:16:26;98950.47;;;20.41;100.00
5595;BME280;1003;48.002;7.788;2023-06-26T00:18:54;98954.81;;;20.39;100.00
5595;BME280;1003;48.002;7.788;2023-06-26T00:21:21;98951.84;;;20.31;100.00
5595;BME280;1003;48.002;7.788;2023-06-26T00:23:49;98948.84;;;20.07;100.00
5595;BME280;1003;48.002;7.788;2023-06-26T00:26:17;98944.06;;;19.85;100.00
5595;BME280;1003;48.002;7.788;2023-06-26T00:28:44;98943.56;;;19.78;100.00
5595;BME280;1003;48.002;7.788;2023-06-26T00:31:11;98939.00;;;19.67;100.00
5595;BME280;1003;48.002;7.788;2023-06-26T00:33:38;98941.88;;;19.61;100.00
5595;BME280;1003;48.002;7.788;2023-06-26T00:36:05;98939.94;;;19.49;100.00
5595;BME280;1003;48.002;7.788;2023-06-26T00:38:32;98923.66;;;19.34;100.00
5595;BME280;1003;48.002;7.788;2023-06-26T00:40:59;98926.34;;;19.31;100.00
5595;BME280;1003;48.002;7.788;2023-06-26T00:43:28;98921.75;;;19.22;100.00
5595;BME280;1003;48.002;7.788;2023-06-26T00:45:55;98905.25;;;19.12;100.00
5595;BME280;1003;48.002;7.788;2023-06-26T00:48:22;98905.41;;;19.09;100.00
5595;BME280;1003;48.002;7.788;2023-06-26T00:50:50;98912.97;;;19.10;100.00
5595;BME280;1003;48.002;7.788;2023-06-26T00:53:17;98919.31;;;19.19;100.00
5595;BME280;1003;48.002;7.788;2023-06-26T00:55:45;98905.03;;;19.17;100.00
5595;BME280;1003;48.002;7.788;2023-06-26T00:58:12;98907.03;;;19.10;100.00
5595;BME280;1003;48.002;7.788;2023-06-26T01:00:41;98904.78;;;19.04;100.00
5595;BME280;1003;48.002;7.788;2023-06-26T01:03:11;98914.09;;;19.05;100.00
5595;BME280;1003;48.002;7.788;2023-06-26T01:05:39;98919.63;;;19.13;100.00
5595;BME280;1003;48.002;7.788;2023-06-26T01:08:06;98918.81;;;19.12;100.00
5595;BME280;1003;48.002;7.788;2023-06-26T01:10:34;98913.84;;;19.09;100.00
5595;BME280;1003;48.002;7.788;2023-06-26T01:13:02;98924.13;;;19.08;100.00
5595;BME280;1003;48.002;7.788;2023-06-26T01:15:29;98919.94;;;19.07;100.00
5595;BME280;1003;48.002;7.788;2023-06-26T01:17:58;98914.97;;;19.04;100.00
5595;BME280;1003;48.002;7.788;2023-06-26T01:20:29;98911.78;;;19.00;100.00
5595;BME280;1003;48.002;7.788;2023-06-26T01:23:06;98914.47;;;18.97;100.00
5595;BME280;1003;48.002;7.788;2023-06-26T01:25:42;98908.69;;;18.94;100.00
5595;BME280;1003;48.002;7.788;2023-06-26T01:28:19;98906.81;;;18.97;100.00
5595;BME280;1003;48.002;7.788;2023-06-26T01:30:48;98905.91;;;18.98;100.00
5595;BME280;1003;48.002;7.788;2023-06-26T01:33:16;98902.41;;;19.01;100.00
5595;BME280;1003;48.002;7.788;2023-06-26T01:35:44;98899.78;;;19.02;100.00
5595;BME280;1003;48.002;7.788;2023-06-26T01:38:14;98905.78;;;19.01;100.00
5595;BME280;1003;48.002;7.788;2023-06-26T01:40:42;98899.09;;;18.99;100.00
5595;BME280;1003;48.002;7.788;2023-06-26T01:43:20;98894.81;;;18.99;100.00
5595;BME280;1003;48.002;7.788;2023-06-26T01:45:54;98894.09;;;18.97;100.00
5595;BME280;1003;48.002;7.788;2023-06-26T01:48:29;98891.41;;;19.00;100.00
5595;BME280;1003;48.002;7.788;2023-06-26T01:50:59;98892.97;;;19.03;100.00
5595;BME280;1003;48.002;7.788;2023-06-26T01:53:33;98892.97;;;19.03;100.00
5595;BME280;1003;48.002;7.788;2023-06-26T01:56:09;98901.34;;;19.05;100.00
5595;BME280;1003;48.002;7.788;2023-06-26T01:58:43;98887.06;;;19.02;100.00
5595;BME280;1003;48.002;7.788;2023-06-26T02:01:12;98893.88;;;19.02;100.00
5595;BME280;1003;48.002;7.788;2023-06-26T02:03:39;98896.50;;;19.00;100.00
5595;BME280;1003;48.002;7.788;2023-06-26T02:06:06;98897.31;;;19.01;100.00
5595;BME280;1003;48.002;7.788;2023-06-26T02:08:33;98892.53;;;18.95;100.00
5595;BME280;1003;48.002;7.788;2023-06-26T02:11:00;98884.22;;;18.91;100.00
5595;BME280;1003;48.002;7.788;2023-06-26T02:13:27;98889.38;;;18.90;100.00
5595;BME280;1003;48.002;7.788;2023-06-26T02:15:55;98883.47;;;18.89;100.00
5595;BME280;1003;48.002;7.788;2023-06-26T02:18:23;98887.50;;;18.93;100.00
5595;BME280;1003;48.002;7.788;2023-06-26T02:20:50;98889.00;;;18.97;100.00
5595;BME280;1003;48.002;7.788;2023-06-26T02:23:17;98896.50;;;19.00;100.00
5595;BME280;1003;48.002;7.788;2023-06-26T02:25:44;98886.97;;;18.86;100.00
5595;BME280;1003;48.002;7.788;2023-06-26T02:28:11;98874.03;;;18.74;100.00
5595;BME280;1003;48.002;7.788;2023-06-26T02:30:38;98866.88;;;18.63;100.00
5595;BME280;1003;48.002;7.788;2023-06-26T02:33:06;98854.50;;;18.55;100.00
5595;BME280;1003;48.002;7.788;2023-06-26T02:35:34;98842.97;;;18.48;100.00
5595;BME280;1003;48.002;7.788;2023-06-26T02:38:01;98825.53;;;18.41;100.00
5595;BME280;1003;48.002;7.788;2023-06-26T02:40:28;98823.19;;;18.36;100.00
5595;BME280;1003;48.002;7.788;2023-06-26T02:42:55;98830.00;;;18.35;100.00
5595;BME280;1003;48.002;7.788;2023-06-26T02:45:22;98838.88;;;18.46;100.00
5595;BME280;1003;48.002;7.788;2023-06-26T02:47:49;98855.09;;;18.60;100.00
5595;BME280;1003;48.002;7.788;2023-06-26T02:50:17;98857.31;;;18.68;100.00
5595;BME280;1003;48.002;7.788;2023-06-26T02:52:44;98862.44;;;18.67;100.00
5595;BME280;1003;48.002;7.788;2023-06-26T02:55:13;98848.28;;;18.61;100.00
5595;BME280;1003;48.002;7.788;2023-06-26T02:57:40;98850.16;;;18.57;100.00
5595;BME280;1003;48.002;7.788;2023-06-26T03:00:09;98851.00;;;18.58;100.00
5595;BME280;1003;48.002;7.788;2023-06-26T03:02:37;98859.06;;;18.68;100.00
5595;BME280;1003;48.002;7.788;2023-06-26T03:05:05;98864.75;;;18.73;100.00
5595;BME280;1003;48.002;7.788;2023-06-26T03:07:33;98872.28;;;18.74;100.00
5595;BME280;1003;48.002;7.788;2023-06-26T03:10:00;98873.84;;;18.77;100.00
5595;BME280;1003;48.002;7.788;2023-06-26T03:12:27;98879.56;;;18.82;100.00
5595;BME280;1003;48.002;7.788;2023-06-26T03:14:54;98888.63;;;18.87;100.00
5595;BME280;1003;48.002;7.788;2023-06-26T03:17:21;98882.25;;;18.96;100.00
5595;BME280;1003;48.002;7.788;2023-06-26T03:19:48;98884.88;;;18.95;100.00
5595;BME280;1003;48.002;7.788;2023-06-26T03:22:15;98889.97;;;18.95;100.00
5595;BME280;1003;48.002;7.788;2023-06-26T03:24:45;98889.97;;;18.95;100.00
5595;BME280;1003;48.002;7.788;2023-06-26T03:27:12;98890.03;;;18.93;100.00
5595;BME280;1003;48.002;7.788;2023-06-26T03:29:39;98893.41;;;18.94;100.00
5595;BME280;1003;48.002;7.788;2023-06-26T03:32:07;98897.38;;;18.99;100.00
5595;BME280;1003;48.002;7.788;2023-06-26T03:34:34;98899.91;;;18.99;100.00
5595;BME280;1003;48.002;7.788;2023-06-26T03:37:01;98901.03;;;18.94;100.00
5595;BME280;1003;48.002;7.788;2023-06-26T03:39:28;98891.09;;;18.89;100.00
5595;BME280;1003;48.002;7.788;2023-06-26T03:41:57;98880.69;;;18.76;100.00
5595;BME280;1003;48.002;7.788;2023-06-26T03:44:26;98863.88;;;18.72;100.00
5595;BME280;1003;48.002;7.788;2023-06-26T03:46:53;98864.97;;;18.68;100.00
5595;BME280;1003;48.002;7.788;2023-06-26T03:49:20;98867.50;;;18.68;100.00
5595;BME280;1003;48.002;7.788;2023-06-26T03:51:47;98866.69;;;18.68;100.00
5595;BME280;1003;48.002;7.788;2023-06-26T03:54:15;98855.50;;;18.70;100.00
5595;BME280;1003;48.002;7.788;2023-06-26T03:56:42;98868.72;;;18.78;100.00
5595;BME280;1003;48.002;7.788;2023-06-26T03:59:10;98861.69;;;18.47;100.00
5595;BME280;1003;48.002;7.788;2023-06-26T04:01:38;98856.44;;;18.50;100.00
5595;BME280;1003;48.002;7.788;2023-06-26T04:04:05;98844.91;;;18.43;100.00
5595;BME280;1003;48.002;7.788;2023-06-26T04:06:32;98846.09;;;18.36;100.00
5595;BME280;1003;48.002;7.788;2023-06-26T04:08:59;98846.72;;;18.41;100.00
5595;BME280;1003;48.002;7.788;2023-06-26T04:11:27;98836.03;;;18.52;100.00
5595;BME280;1003;48.002;7.788;2023-06-26T04:13:54;98834.22;;;18.54;100.00
5595;BME280;1003;48.002;7.788;2023-06-26T04:16:23;98830.31;;;18.64;100.00
5595;BME280;1003;48.002;7.788;2023-06-26T04:18:51;98821.28;;;18.76;100.00
5595;BME280;1003;48.002;7.788;2023-06-26T04:21:18;98829.72;;;18.94;100.00
5595;BME280;1003;48.002;7.788;2023-06-26T04:23:46;98840.53;;;19.16;100.00
5595;BME280;1003;48.002;7.788;2023-06-26T04:26:13;98850.34;;;19.39;100.00
5595;BME280;1003;48.002;7.788;2023-06-26T04:28:40;98877.91;;;19.66;100.00
5595;BME280;1003;48.002;7.788;2023-06-26T04:31:08;98884.91;;;19.94;100.00
5595;BME280;1003;48.002;7.788;2023-06-26T04:33:37;98898.66;;;20.23;100.00
5595;BME280;1003;48.002;7.788;2023-06-26T04:36:05;98915.06;;;20.66;100.00
5595;BME280;1003;48.002;7.788;2023-06-26T04:38:32;98928.72;;;21.26;100.00
5595;BME280;1003;48.002;7.788;2023-06-26T04:41:00;98948.59;;;21.93;100.00
5595;BME280;1003;48.002;7.788;2023-06-26T04:43:28;98964.22;;;22.59;100.00
5595;BME280;1003;48.002;7.788;2023-06-26T04:45:55;98972.50;;;23.16;100.00
5595;BME280;1003;48.002;7.788;2023-06-26T04:48:22;98984.66;;;23.52;100.00
5595;BME280;1003;48.002;7.788;2023-06-26T04:50:51;98984.88;;;24.00;100.00
5595;BME280;1003;48.002;7.788;2023-06-26T04:53:19;98996.72;;;24.27;100.00
5595;BME280;1003;48.002;7.788;2023-06-26T04:55:47;98993.34;;;24.39;100.00
5595;BME280;1003;48.002;7.788;2023-06-26T04:58:14;98996.66;;;24.65;100.00
5595;BME280;1003;48.002;7.788;2023-06-26T05:00:42;98992.94;;;25.28;100.00
5595;BME280;1003;48.002;7.788;2023-06-26T05:03:09;99004.16;;;25.27;100.00
5595;BME280;1003;48.002;7.788;2023-06-26T05:05:36;99008.09;;;25.55;100.00
5595;BME280;1003;48.002;7.788;2023-06-26T05:08:16;99003.41;;;25.72;100.00
5595;BME280;1003;48.002;7.788;2023-06-26T05:10:44;99002.69;;;25.47;100.00
5595;BME280;1003;48.002;7.788;2023-06-26T05:13:11;99004.22;;;25.50;100.00
5595;BME280;1003;48.002;7.788;2023-06-26T05:15:40;99003.44;;;24.66;100.00
5595;BME280;1003;48.002;7.788;2023-06-26T05:18:08;98999.63;;;24.59;100.00
5595;BME280;1003;48.002;7.788;2023-06-26T05:20:36;98999.09;;;24.91;100.00
5595;BME280;1003;48.002;7.788;2023-06-26T05:23:04;98997.88;;;25.43;100.00
5595;BME280;1003;48.002;7.788;2023-06-26T05:25:33;99000.75;;;25.73;100.00
5595;BME280;1003;48.002;7.788;2023-06-26T05:28:01;98996.91;;;26.12;100.00
5595;BME280;1003;48.002;7.788;2023-06-26T05:30:31;99003.00;;;26.23;100.00
5595;BME280;1003;48.002;7.788;2023-06-26T05:33:01;99001.03;;;26.81;100.00
5595;BME280;1003;48.002;7.788;2023-06-26T05:35:30;99006.28;;;27.11;100.00
5595;BME280;1003;48.002;7.788;2023-06-26T05:37:58;99004.81;;;26.98;100.00
5595;BME280;1003;48.002;7.788;2023-06-26T05:40:25;99005.75;;;27.08;100.00
5595;BME280;1003;48.002;7.788;2023-06-26T05:42:55;99012.03;;;27.15;100.00
5595;BME280;1003;48.002;7.788;2023-06-26T05:45:22;99009.25;;;27.48;100.00
5595;BME280;1003;48.002;7.788;2023-06-26T05:47:49;99010.94;;;27.80;100.00
5595;BME280;1003;48.002;7.788;2023-06-26T05:50:18;99012.38;;;28.34;100.00
5595;BME280;1003;48.002;7.788;2023-06-26T05:52:47;99012.03;;;28.77;100.00
5595;BME280;1003;48.002;7.788;2023-06-26T05:55:14;99003.63;;;28.85;100.00
5595;BME280;1003;48.002;7.788;2023-06-26T05:57:42;99008.25;;;29.30;100.00
5595;BME280;1003;48.002;7.788;2023-06-26T06:00:13;99012.97;;;29.64;100.00
5595;BME280;1003;48.002;7.788;2023-06-26T06:02:42;99005.56;;;29.69;100.00
5595;BME280;1003;48.002;7.788;2023-06-26T06:05:09;98991.78;;;30.05;100.00
5595;BME280;1003;48.002;7.788;2023-06-26T06:07:37;98993.94;;;30.20;100.00
5595;BME280;1003;48.002;7.788;2023-06-26T06:10:05;98992.19;;;30.38;100.00
5595;BME280;1003;48.002;7.788;2023-06-26T06:12:32;98988.94;;;30.36;100.00
5595;BME280;1003;48.002;7.788;2023-06-26T06:14:59;98999.09;;;30.65;100.00
5595;BME280;1003;48.002;7.788;2023-06-26T06:17:27;99000.06;;;30.82;100.00
5595;BME280;1003;48.002;7.788;2023-06-26T06:19:54;99002.31;;;30.77;99.95
5595;BME280;1003;48.002;7.788;2023-06-26T06:22:21;98991.16;;;31.02;100.00
5595;BME280;1003;48.002;7.788;2023-06-26T06:24:50;98999.31;;;31.51;98.54
5595;BME280;1003;48.002;7.788;2023-06-26T06:27:17;98996.81;;;31.42;92.47
5595;BME280;1003;48.002;7.788;2023-06-26T06:29:44;98996.50;;;31.71;95.50
5595;BME280;1003;48.002;7.788;2023-06-26T06:32:11;99004.75;;;31.66;93.91
5595;BME280;1003;48.002;7.788;2023-06-26T06:34:40;98993.03;;;31.62;88.31
5595;BME280;1003;48.002;7.788;2023-06-26T06:37:07;98994.72;;;32.05;88.55
5595;BME280;1003;48.002;7.788;2023-06-26T06:39:34;98999.78;;;32.15;88.18
5595;BME280;1003;48.002;7.788;2023-06-26T06:42:01;99000.88;;;32.47;89.21
5595;BME280;1003;48.002;7.788;2023-06-26T06:44:28;98997.47;;;31.70;88.05
5595;BME280;1003;48.002;7.788;2023-06-26T06:46:56;99002.41;;;32.23;88.73
5595;BME280;1003;48.002;7.788;2023-06-26T06:49:23;99010.00;;;32.51;80.32
5595;BME280;1003;48.002;7.788;2023-06-26T06:51:52;99012.28;;;32.54;80.53
5595;BME280;1003;48.002;7.788;2023-06-26T06:54:19;99007.47;;;32.33;76.17
5595;BME280;1003;48.002;7.788;2023-06-26T06:56:46;99009.41;;;32.23;79.82
5595;BME280;1003;48.002;7.788;2023-06-26T06:59:13;99015.69;;;32.54;79.98
5595;BME280;1003;48.002;7.788;2023-06-26T07:01:40;99013.75;;;32.56;79.95
5595;BME280;1003;48.002;7.788;2023-06-26T07:04:07;99012.19;;;32.96;80.88
5595;BME280;1003;48.002;7.788;2023-06-26T07:06:35;99023.41;;;33.05;76.21
5595;BME280;1003;48.002;7.788;2023-06-26T07:09:03;99026.47;;;32.84;76.23
5595;BME280;1003;48.002;7.788;2023-06-26T07:11:31;99029.44;;;33.05;75.96
5595;BME280;1003;48.002;7.788;2023-06-26T07:13:58;99032.31;;;32.86;75.34
5595;BME280;1003;48.002;7.788;2023-06-26T07:16:25;99025.84;;;33.06;79.82
5595;BME280;1003;48.002;7.788;2023-06-26T07:18:52;99031.03;;;33.31;78.95
5595;BME280;1003;48.002;7.788;2023-06-26T07:21:20;99028.78;;;33.28;73.50
5595;BME280;1003;48.002;7.788;2023-06-26T07:23:47;99021.28;;;33.25;74.99
5595;BME280;1003;48.002;7.788;2023-06-26T07:26:16;99026.00;;;33.13;73.51
5595;BME280;1003;48.002;7.788;2023-06-26T07:28:43;99022.41;;;33.47;73.74
5595;BME280;1003;48.002;7.788;2023-06-26T07:31:10;99009.91;;;33.42;71.44
5595;BME280;1003;48.002;7.788;2023-06-26T07:33:38;99017.81;;;33.65;71.85
5595;BME280;1003;48.002;7.788;2023-06-26T07:36:06;99014.81;;;33.84;68.93
5595;BME280;1003;48.002;7.788;2023-06-26T07:38:33;99014.44;;;33.48;70.88
5595;BME280;1003;48.002;7.788;2023-06-26T07:41:00;99015.38;;;33.55;72.94
5595;BME280;1003;48.002;7.788;2023-06-26T07:43:28;99013.63;;;34.03;71.25
5595;BME280;1003;48.002;7.788;2023-06-26T07:45:55;99008.56;;;34.33;68.61
5595;BME280;1003;48.002;7.788;2023-06-26T07:48:24;99013.38;;;34.21;70.01
5595;BME280;1003;48.002;7.788;2023-06-26T07:50:51;99011.31;;;34.39;70.10
5595;BME280;1003;48.002;7.788;2023-06-26T07:53:19;99017.63;;;34.53;66.68
5595;BME280;1003;48.002;7.788;2023-06-26T07:55:46;99016.56;;;34.85;64.83
5595;BME280;1003;48.002;7.788;2023-06-26T07:58:13;99017.78;;;35.35;64.03
5595;BME280;1003;48.002;7.788;2023-06-26T08:00:42;99016.41;;;35.47;65.51
5595;BME280;1003;48.002;7.788;2023-06-26T08:03:09;99019.00;;;34.87;66.81
5595;BME280;1003;48.002;7.788;2023-06-26T08:05:36;99016.28;;;33.79;71.64
5595;BME280;1003;48.002;7.788;2023-06-26T08:08:03;99025.03;;;33.06;74.81
5595;BME280;1003;48.002;7.788;2023-06-26T08:10:30;99018.03;;;33.14;77.52
5595;BME280;1003;48.002;7.788;2023-06-26T08:12:57;99013.81;;;33.93;74.59
5595;BME280;1003;48.002;7.788;2023-06-26T08:15:24;99018.28;;;34.16;74.06
5595;BME280;1003;48.002;7.788;2023-06-26T08:17:52;99013.34;;;34.29;75.59
5595;BME280;1003;48.002;7.788;2023-06-26T08:20:20;99021.19;;;33.74;77.29
5595;BME280;1003;48.002;7.788;2023-06-26T08:22:48;99019.31;;;33.35;76.81
5595;BME280;1003;48.002;7.788;2023-06-26T08:25:17;99025.53;;;33.17;82.13
5595;BME280;1003;48.002;7.788;2023-06-26T08:27:44;99017.53;;;33.43;83.74
5595;BME280;1003;48.002;7.788;2023-06-26T08:30:11;99017.72;;;33.89;78.20
5595;BME280;1003;48.002;7.788;2023-06-26T08:32:39;99019.25;;;33.67;77.79
5595;BME280;1003;48.002;7.788;2023-06-26T08:35:08;99028.88;;;33.67;79.95
5595;BME280;1003;48.002;7.788;2023-06-26T08:37:36;99033.00;;;33.12;78.04
5595;BME280;1003;48.002;7.788;2023-06-26T08:40:04;99032.03;;;33.13;81.26
5595;BME280;1003;48.002;7.788;2023-06-26T08:42:31;99032.50;;;32.26;82.52
5595;BME280;1003;48.002;7.788;2023-06-26T08:44:59;99023.84;;;32.68;88.47
5595;BME280;1003;48.002;7.788;2023-06-26T08:47:27;99027.56;;;32.65;86.15
5595;BME280;1003;48.002;7.788;2023-06-26T08:50:06;99027.69;;;32.39;87.72
5595;BME280;1003;48.002;7.788;2023-06-26T08:52:43;99032.69;;;32.91;92.62
5595;BME280;1003;48.002;7.788;2023-06-26T08:55:12;99034.25;;;32.76;87.41
5595;BME280;1003;48.002;7.788;2023-06-26T08:57:42;99035.25;;;32.83;89.81
5595;BME280;1003;48.002;7.788;2023-06-26T09:00:11;99035.25;;;32.83;88.97
5595;BME280;1003;48.002;7.788;2023-06-26T09:02:41;99036.91;;;33.16;88.55
5595;BME280;1003;48.002;7.788;2023-06-26T09:05:08;99038.84;;;33.31;86.66
5595;BME280;1003;48.002;7.788;2023-06-26T09:07:37;99049.94;;;33.41;85.10
5595;BME280;1003;48.002;7.788;2023-06-26T09:10:04;99054.00;;;33.35;84.50
5595;BME280;1003;48.002;7.788;2023-06-26T09:12:32;99046.59;;;33.96;84.38
5595;BME280;1003;48.002;7.788;2023-06-26T09:15:01;99059.88;;;33.37;83.47
5595;BME280;1003;48.002;7.788;2023-06-26T09:17:30;99060.72;;;32.47;86.30
5595;BME280;1003;48.002;7.788;2023-06-26T09:19:58;99067.16;;;31.74;89.11
5595;BME280;1003;48.002;7.788;2023-06-26T09:22:26;99073.06;;;31.76;93.86
5595;BME280;1003;48.002;7.788;2023-06-26T09:24:55;99075.94;;;31.73;95.32
5595;BME280;1003;48.002;7.788;2023-06-26T09:27:22;99075.84;;;31.57;96.72
5595;BME280;1003;48.002;7.788;2023-06-26T09:29:50;99074.25;;;31.64;97.58
5595;BME280;1003;48.002;7.788;2023-06-26T09:32:17;99074.97;;;31.74;98.46
5595;BME280;1003;48.002;7.788;2023-06-26T09:34:44;99076.50;;;32.11;96.10
5595;BME280;1003;48.002;7.788;2023-06-26T09:37:12;99070.09;;;31.97;97.10
5595;BME280;1003;48.002;7.788;2023-06-26T09:39:40;99078.91;;;32.04;96.57
5595;BME280;1003;48.002;7.788;2023-06-26T09:42:08;99082.13;;;32.32;94.18
5595;BME280;1003;48.002;7.788;2023-06-26T09:44:35;99076.56;;;32.61;95.93
5595;BME280;1003;48.002;7.788;2023-06-26T09:47:03;99077.50;;;32.60;93.67
5595;BME280;1003;48.002;7.788;2023-06-26T09:49:31;99078.91;;;32.97;92.33
5595;BME280;1003;48.002;7.788;2023-06-26T09:52:01;99089.84;;;33.33;91.61
5595;BME280;1003;48.002;7.788;2023-06-26T09:54:29;99084.13;;;33.71;88.49
5595;BME280;1003;48.002;7.788;2023-06-26T09:57:08;99090.66;;;34.22;85.09
5595;BME280;1003;48.002;7.788;2023-06-26T09:59:36;99095.63;;;34.09;82.22
5595;BME280;1003;48.002;7.788;2023-06-26T10:02:04;99097.78;;;33.81;81.77
5595;BME280;1003;48.002;7.788;2023-06-26T10:04:31;99105.44;;;33.99;79.21
5595;BME280;1003;48.002;7.788;2023-06-26T10:07:01;99092.47;;;34.21;79.12
5595;BME280;1003;48.002;7.788;2023-06-26T10:09:30;99105.94;;;33.94;81.96
5595;BME280;1003;48.002;7.788;2023-06-26T10:12:02;99096.50;;;33.52;86.20
5595;BME280;1003;48.002;7.788;2023-06-26T10:14:37;99097.00;;;33.64;83.55
5595;BME280;1003;48.002;7.788;2023-06-26T10:17:10;99094.19;;;33.82;82.10
5595;BME280;1003;48.002;7.788;2023-06-26T10:19:43;99095.81;;;33.83;83.94
5595;BME280;1003;48.002;7.788;2023-06-26T10:22:15;99104.53;;;33.42;86.13
5595;BME280;1003;48.002;7.788;2023-06-26T10:24:45;99101.94;;;32.76;88.59
5595;BME280;1003;48.002;7.788;2023-06-26T10:27:17;99104.63;;;32.16;93.19
5595;BME280;1003;48.002;7.788;2023-06-26T10:29:54;99106.28;;;31.91;93.61
5595;BME280;1003;48.002;7.788;2023-06-26T10:32:25;99114.06;;;31.82;95.75
5595;BME280;1003;48.002;7.788;2023-06-26T10:34:55;99111.56;;;31.55;97.99
5595;BME280;1003;48.002;7.788;2023-06-26T10:37:41;99116.19;;;31.43;97.00
5595;BME280;1003;48.002;7.788;2023-06-26T10:40:10;99123.13;;;31.43;100.00
5595;BME280;1003;48.002;7.788;2023-06-26T10:42:39;99118.38;;;31.02;100.00
5595;BME280;1003;48.002;7.788;2023-06-26T10:45:14;99116.28;;;30.88;100.00
5595;BME280;1003;48.002;7.788;2023-06-26T10:47:45;99119.06;;;30.49;100.00
5595;BME280;1003;48.002;7.788;2023-06-26T10:50:23;99119.19;;;30.57;100.00
5595;BME280;1003;48.002;7.788;2023-06-26T10:53:11;99109.41;;;30.04;100.00
5595;BME280;1003;48.002;7.788;2023-06-26T10:55:42;99105.94;;;29.67;100.00
5595;BME280;1003;48.002;7.788;2023-06-26T10:58:33;99103.66;;;30.11;100.00
5595;BME280;1003;48.002;7.788;2023-06-26T11:01:22;99095.72;;;30.77;100.00
5595;BME280;1003;48.002;7.788;2023-06-26T11:04:03;99099.41;;;31.02;100.00
5595;BME280;1003;48.002;7.788;2023-06-26T11:06:32;99099.81;;;31.15;100.00
5595;BME280;1003;48.002;7.788;2023-06-26T11:09:07;99095.50;;;30.70;100.00
5595;BME280;1003;48.002;7.788;2023-06-26T11:11:58;99096.88;;;30.65;100.00
5595;BME280;1003;48.002;7.788;2023-06-26T11:14:28;99098.38;;;30.95;100.00
5595;BME280;1003;48.002;7.788;2023-06-26T11:17:02;99101.16;;;31.19;100.00
5595;BME280;1003;48.002;7.788;2023-06-26T11:19:29;99102.78;;;31.20;100.00
5595;BME280;1003;48.002;7.788;2023-06-26T11:22:03;99098.56;;;31.55;100.00
5595;BME280;1003;48.002;7.788;2023-06-26T11:24:31;99093.53;;;31.35;100.00
5595;BME280;1003;48.002;7.788;2023-06-26T11:27:04;99102.06;;;31.10;99.65
5595;BME280;1003;48.002;7.788;2023-06-26T11:29:32;99094.44;;;31.44;100.00
5595;BME280;1003;48.002;7.788;2023-06-26T11:32:04;99093.81;;;31.94;97.84
5595;BME280;1003;48.002;7.788;2023-06-26T11:34:33;99100.00;;;31.49;95.54
5595;BME280;1003;48.002;7.788;2023-06-26T11:37:00;99104.53;;;31.12;100.00
5595;BME280;1003;48.002;7.788;2023-06-26T11:39:30;99104.53;;;31.12;100.00
5595;BME280;1003;48.002;7.788;2023-06-26T11:42:00;99106.81;;;30.97;100.00
5595;BME280;1003;48.002;7.788;2023-06-26T11:44:30;99110.50;;;30.67;100.00
5595;BME280;1003;48.002;7.788;2023-06-26T11:46:58;99101.56;;;30.24;100.00
5595;BME280;1003;48.002;7.788;2023-06-26T11:49:29;99100.88;;;30.59;100.00
5595;BME280;1003;48.002;7.788;2023-06-26T11:51:56;99107.50;;;30.71;100.00
5595;BME280;1003;48.002;7.788;2023-06-26T11:54:27;99099.91;;;30.88;100.00
5595;BME280;1003;48.002;7.788;2023-06-26T11:56:56;99107.56;;;31.07;100.00
5595;BME280;1003;48.002;7.788;2023-06-26T11:59:24;99099.00;;;31.15;100.00
5595;BME280;1003;48.002;7.788;2023-06-26T12:01:59;99108.81;;;30.85;100.00
5595;BME280;1003;48.002;7.788;2023-06-26T12:04:28;99106.97;;;30.40;100.00
5595;BME280;1003;48.002;7.788;2023-06-26T12:06:56;99100.38;;;30.46;100.00
5595;BME280;1003;48.002;7.788;2023-06-26T12:09:24;99093.31;;;30.01;100.00
5595;BME280;1003;48.002;7.788;2023-06-26T12:11:54;99089.25;;;29.98;100.00
5595;BME280;1003;48.002;7.788;2023-06-26T12:14:24;99086.19;;;29.66;100.00
5595;BME280;1003;48.002;7.788;2023-06-26T12:16:54;99086.72;;;29.50;100.00
5595;BME280;1003;48.002;7.788;2023-06-26T12:19:25;99093.28;;;28.96;100.00
5595;BME280;1003;48.002;7.788;2023-06-26T12:21:54;99095.81;;;28.86;100.00
5595;BME280;1003;48.002;7.788;2023-06-26T12:24:23;99097.69;;;28.84;100.00
5595;BME280;1003;48.002;7.788;2023-06-26T12:26:53;99100.91;;;29.36;100.00
5595;BME280;1003;48.002;7.788;2023-06-26T12:29:32;99092.50;;;30.00;100.00
5595;BME280;1003;48.002;7.788;2023-06-26T12:32:00;99097.88;;;30.54;100.00
5595;BME280;1003;48.002;7.788;2023-06-26T12:34:31;99095.72;;;30.77;100.00
5595;BME280;1003;48.002;7.788;2023-06-26T12:37:03;99105.63;;;30.36;98.69
5595;BME280;1003;48.002;7.788;2023-06-26T12:39:45;99102.03;;;30.19;98.05
5595;BME280;1003;48.002;7.788;2023-06-26T12:42:15;99100.28;;;29.91;100.00
5595;BME280;1003;48.002;7.788;2023-06-26T12:44:42;99099.22;;;29.93;100.00
5595;BME280;1003;48.002;7.788;2023-06-26T12:47:09;99099.09;;;29.85;100.00
5595;BME280;1003;48.002;7.788;2023-06-26T12:49:42;99098.25;;;29.94;100.00
5595;BME280;1003;48.002;7.788;2023-06-26T12:52:13;99095.56;;;29.38;100.00
5595;BME280;1003;48.002;7.788;2023-06-26T12:54:43;99100.22;;;29.53;100.00
5595;BME280;1003;48.002;7.788;2023-06-26T12:57:10;99095.75;;;30.02;100.00
5595;BME280;1003;48.002;7.788;2023-06-26T12:59:40;99098.28;;;29.75;98.70
5595;BME280;1003;48.002;7.788;2023-06-26T13:02:08;99101.97;;;29.43;99.40
5595;BME280;1003;48.002;7.788;2023-06-26T13:04:37;99097.09;;;29.60;100.00
5595;BME280;1003;48.002;7.788;2023-06-26T13:07:06;99094.38;;;29.71;100.00
5595;BME280;1003;48.002;7.788;2023-06-26T13:09:35;99095.06;;;29.53;100.00
5595;BME280;1003;48.002;7.788;2023-06-26T13:12:03;99091.91;;;29.60;100.00
5595;BME280;1003;48.002;7.788;2023-06-26T13:14:31;99089.03;;;29.63;97.42
5595;BME280;1003;48.002;7.788;2023-06-26T13:16:58;99087.00;;;29.76;100.00
5595;BME280;1003;48.002;7.788;2023-06-26T13:19:25;99089.03;;;29.72;95.55
5595;BME280;1003;48.002;7.788;2023-06-26T13:21:52;99082.78;;;29.56;98.07
5595;BME280;1003;48.002;7.788;2023-06-26T13:24:19;99084.50;;;29.74;97.56